Time;durP1;ratioP1;P1;durP2;ratioP2;P2;SDS_P1;SDS_P2;PMS_P1;PMS_P2;Temp;Humidity;BMP_temperature;BMP_pressure;BME280_temperature;BME280_humidity;BME280_pressure;Samples;Min_cycle;Max_cycle;Signal;HPM_P1;HPM_P2
2023/04/21 00:01:33;;;;;;;5.87;3.43;;;;;;;-145.69;100.00;52636.50;5079070;28;20213;-77
2023/04/21 00:04:00;;;;;;;5.17;3.13;;;;;;;-145.69;100.00;52563.22;5078770;28;20669;-77
2023/04/21 00:06:27;;;;;;;6.83;3.80;;;;;;;-145.69;100.00;52606.78;5079113;28;20570;-77
2023/04/21 00:08:53;;;;;;;5.13;3.30;;;;;;;-145.69;100.00;52598.84;5078828;28;20553;-76
2023/04/21 00:11:21;;;;;;;6.40;3.73;;;;;;;-145.69;100.00;52620.66;5078595;28;20206;-77
2023/04/21 00:13:48;;;;;;;6.07;3.47;;;;;;;-145.69;100.00;52642.44;5078410;28;20649;-77
2023/04/21 00:16:14;;;;;;;6.80;3.77;;;;;;;-145.69;100.00;52638.47;5079035;28;20207;-77
2023/04/21 00:18:43;;;;;;;8.67;4.23;;;;;;;-145.69;100.00;52614.72;5078786;28;20202;-77
2023/04/21 00:21:09;;;;;;;6.67;4.13;;;;;;;-145.69;100.00;52602.81;5078764;28;20194;-77
2023/04/21 00:23:36;;;;;;;7.43;3.53;;;;;;;-145.69;100.00;52614.72;5078939;28;20199;-76
2023/04/21 00:26:02;;;;;;;7.93;3.70;;;;;;;-145.69;100.00;52614.72;5077347;28;20550;-76
2023/04/21 00:28:30;;;;;;;6.27;3.90;;;;;;;-145.69;100.00;52616.69;5075211;28;20194;-77
2023/04/21 00:30:56;;;;;;;8.43;4.23;;;;;;;-145.69;100.00;52642.44;5075298;28;20191;-76
2023/04/21 00:33:25;;;;;;;7.97;4.17;;;;;;;-145.69;100.00;52622.63;5075447;28;20227;-77
2023/04/21 00:35:55;;;;;;;8.40;4.53;;;;;;;-145.69;100.00;52638.47;5075456;28;20210;-76
2023/04/21 00:38:22;;;;;;;8.90;4.50;;;;;;;-145.69;100.00;52622.63;5075391;28;20203;-76
2023/04/21 00:40:48;;;;;;;9.03;4.43;;;;;;;-145.69;100.00;52624.59;5074845;28;20221;-76
2023/04/21 00:43:15;;;;;;;8.33;4.93;;;;;;;-145.69;100.00;52583.00;5075414;28;20203;-77
2023/04/21 00:45:45;;;;;;;9.10;4.37;;;;;;;-145.69;100.00;52638.47;5075102;28;20250;-77
2023/04/21 00:48:12;;;;;;;13.50;4.93;;;;;;;-145.69;100.00;52620.66;5075157;28;20288;-77
2023/04/21 00:50:38;;;;;;;11.17;5.53;;;;;;;-145.69;100.00;52602.81;5074762;28;20202;-77
2023/04/21 00:53:05;;;;;;;10.90;4.93;;;;;;;-145.69;100.00;52579.06;5074561;28;20223;-76
2023/04/21 00:55:32;;;;;;;10.23;4.67;;;;;;;-145.69;100.00;52602.81;5074927;28;20207;-76
2023/04/21 00:57:59;;;;;;;8.27;4.50;;;;;;;-145.69;100.00;52626.59;5074684;28;20218;-77
2023/04/21 01:00:26;;;;;;;12.60;5.50;;;;;;;-145.69;100.00;52590.94;5075080;28;20210;-76
2023/04/21 01:02:54;;;;;;;11.73;5.80;;;;;;;-145.69;100.00;52594.91;5074967;28;20210;-76
2023/04/21 01:05:20;;;;;;;11.83;5.23;;;;;;;-145.69;100.00;52642.44;5074017;28;20680;-76
2023/04/21 01:07:49;;;;;;;12.00;5.03;;;;;;;-145.69;100.00;52622.63;5074390;28;20194;-77
2023/04/21 01:10:18;;;;;;;14.13;5.27;;;;;;;-145.69;100.00;52600.84;5074498;28;20689;-77
2023/04/21 01:12:46;;;;;;;13.13;5.63;;;;;;;-145.69;100.00;52626.59;5074747;28;20230;-76
2023/04/21 01:15:13;;;;;;;9.80;4.93;;;;;;;-145.69;100.00;52598.84;5074733;28;20206;-77
2023/04/21 01:17:40;;;;;;;12.43;5.00;;;;;;;-145.69;100.00;52606.78;5074573;28;20210;-76
2023/04/21 01:20:11;;;;;;;10.37;4.73;;;;;;;-145.69;100.00;52626.59;5073717;28;20209;-76
2023/04/21 01:22:43;;;;;;;10.73;4.67;;;;;;;-145.69;100.00;52598.84;5074403;28;20207;-76
2023/04/21 01:25:13;;;;;;;8.60;4.70;;;;;;;-145.69;100.00;52608.75;5070263;28;20229;-77
2023/04/21 01:27:40;;;;;;;11.77;4.33;;;;;;;-145.69;100.00;52650.34;5073087;28;20244;-76
2023/04/21 01:30:10;;;;;;;6.80;3.83;;;;;;;-145.69;100.00;52644.41;5074338;28;20203;-77
2023/04/21 01:32:37;;;;;;;6.40;3.90;;;;;;;-145.69;100.00;52612.72;5073890;28;20219;-76
2023/04/21 01:35:05;;;;;;;6.03;3.57;;;;;;;-145.69;100.00;52634.50;5074224;28;20198;-77
2023/04/21 01:37:35;;;;;;;6.70;3.60;;;;;;;-145.69;100.00;52630.53;5073862;28;20213;-76
2023/04/21 01:40:08;;;;;;;6.20;3.07;;;;;;;-145.69;100.00;52602.81;5073865;28;20228;-76
2023/04/21 01:42:37;;;;;;;8.60;3.87;;;;;;;-145.69;100.00;52644.41;5074197;28;20522;-76
2023/04/21 01:45:07;;;;;;;8.07;3.30;;;;;;;-145.69;100.00;52618.66;5073916;28;20241;-76
2023/04/21 01:47:34;;;;;;;7.57;3.67;;;;;;;-145.69;100.00;52652.34;5073736;28;20191;-76
2023/04/21 01:50:00;;;;;;;7.17;3.50;;;;;;;-145.69;100.00;52616.69;5073674;28;20199;-76
2023/04/21 01:52:27;;;;;;;6.93;3.63;;;;;;;-145.69;100.00;52636.50;5073889;28;20223;-76
2023/04/21 01:54:54;;;;;;;12.33;4.30;;;;;;;-145.69;100.00;52656.28;5073661;28;20205;-76
2023/04/21 01:57:22;;;;;;;11.10;4.20;;;;;;;-145.69;100.00;52614.72;5073930;28;20199;-76
2023/04/21 01:59:51;;;;;;;9.47;4.03;;;;;;;-145.69;100.00;52638.47;5073788;28;20294;-76
2023/04/21 02:02:18;;;;;;;10.37;3.83;;;;;;;-145.69;100.00;52616.69;5073451;28;20653;-77
2023/04/21 02:04:44;;;;;;;6.37;3.60;;;;;;;-145.69;100.00;52646.41;5053899;28;20204;-76
2023/04/21 02:07:13;;;;;;;8.67;3.90;;;;;;;-145.69;100.00;52622.63;5053803;28;20201;-77
2023/04/21 02:09:42;;;;;;;7.93;3.80;;;;;;;-145.69;100.00;52620.66;5057377;28;20187;-76
2023/04/21 02:12:09;;;;;;;8.10;3.27;;;;;;;-145.69;100.00;52586.97;5072956;28;20195;-76
2023/04/21 02:14:38;;;;;;;9.13;3.90;;;;;;;-145.69;100.00;52638.47;5073165;28;20191;-76
2023/04/21 02:17:07;;;;;;;6.83;3.40;;;;;;;-145.69;100.00;52610.75;5073692;28;20198;-76
2023/04/21 02:19:34;;;;;;;6.40;3.50;;;;;;;-145.69;100.00;52612.72;5073088;28;20191;-76
2023/04/21 02:22:00;;;;;;;9.43;4.00;;;;;;;-145.69;100.00;52628.56;5073467;28;20202;-76
2023/04/21 02:24:27;;;;;;;8.20;3.63;;;;;;;-145.69;100.00;52612.72;5072728;28;20199;-76
2023/04/21 02:26:53;;;;;;;6.73;3.50;;;;;;;-145.69;100.00;52620.66;5073303;28;20206;-76
2023/04/21 02:29:20;;;;;;;9.97;3.70;;;;;;;-145.69;100.00;52630.53;5073586;28;20202;-76
2023/04/21 02:31:48;;;;;;;8.50;3.80;;;;;;;-145.69;100.00;52646.41;5073077;28;20530;-76
2023/04/21 02:34:14;;;;;;;11.20;3.43;;;;;;;-145.69;100.00;52618.66;5073184;28;20562;-76
2023/04/21 02:36:41;;;;;;;6.23;3.43;;;;;;;-145.69;100.00;52614.72;5072948;28;20197;-77
2023/04/21 02:39:07;;;;;;;5.63;3.67;;;;;;;-145.69;100.00;52654.31;5072806;28;20191;-77
2023/04/21 02:41:36;;;;;;;6.60;3.33;;;;;;;-145.69;100.00;52638.47;5072837;28;20194;-77
2023/04/21 02:44:03;;;;;;;7.33;3.07;;;;;;;-145.69;100.00;52622.63;5072768;28;20661;-77
2023/04/21 02:46:30;;;;;;;5.97;2.97;;;;;;;-145.69;100.00;52658.28;5072741;28;20613;-76
2023/04/21 02:48:58;;;;;;;5.27;2.83;;;;;;;-145.69;100.00;52646.41;5072151;28;20226;-76
2023/04/21 02:51:27;;;;;;;4.50;3.03;;;;;;;-145.69;100.00;52638.47;5072732;28;20207;-77
2023/04/21 02:53:54;;;;;;;6.73;3.57;;;;;;;-145.69;100.00;52616.69;5072500;28;20222;-76
2023/04/21 02:56:24;;;;;;;6.67;3.13;;;;;;;-145.69;100.00;52638.47;5072759;28;20234;-76
2023/04/21 02:58:50;;;;;;;9.63;3.23;;;;;;;-145.69;100.00;52622.63;5072994;28;20203;-76
2023/04/21 03:01:17;;;;;;;5.07;2.90;;;;;;;-145.69;100.00;52636.50;5072723;28;20577;-77
2023/04/21 03:03:44;;;;;;;5.37;3.17;;;;;;;-145.69;100.00;52630.53;5072780;28;20297;-77
2023/04/21 03:06:15;;;;;;;6.67;3.00;;;;;;;-145.69;100.00;52648.38;5072798;28;20233;-76
2023/04/21 03:08:41;;;;;;;6.23;3.07;;;;;;;-145.69;100.00;52632.53;5072268;28;20201;-77
2023/04/21 03:11:09;;;;;;;12.43;3.43;;;;;;;-145.69;100.00;52646.41;5072041;28;20286;-76
2023/04/21 03:13:37;;;;;;;7.07;3.20;;;;;;;-145.69;100.00;52612.72;5067500;28;20286;-76
2023/04/21 03:16:04;;;;;;;4.03;2.60;;;;;;;-145.69;100.00;52612.72;5072773;28;20238;-77
2023/04/21 03:18:34;;;;;;;5.73;2.70;;;;;;;-145.69;100.00;52634.50;5072232;28;20657;-76
2023/04/21 03:21:01;;;;;;;5.80;2.77;;;;;;;-145.69;100.00;52642.44;5072683;28;20202;-76
2023/04/21 03:23:29;;;;;;;4.57;2.40;;;;;;;-145.69;100.00;52626.59;5072318;28;20213;-76
2023/04/21 03:25:55;;;;;;;5.00;2.80;;;;;;;-145.69;100.00;52622.63;5055354;28;20199;-76
2023/04/21 03:28:22;;;;;;;5.03;2.77;;;;;;;-145.69;100.00;52662.22;5061743;28;20577;-76
2023/04/21 03:30:48;;;;;;;4.33;2.20;;;;;;;-145.69;100.00;52642.44;5072607;28;20229;-76
2023/04/21 03:33:17;;;;;;;3.97;2.27;;;;;;;-145.69;100.00;52626.59;5072396;28;20313;-77
2023/04/21 03:35:43;;;;;;;3.70;2.10;;;;;;;-145.69;100.00;52620.66;5072202;28;20203;-76
2023/04/21 03:38:10;;;;;;;5.10;2.47;;;;;;;-145.69;100.00;52654.31;5072635;28;20203;-76
2023/04/21 03:40:38;;;;;;;4.27;2.50;;;;;;;-145.69;100.00;52646.41;5072517;28;20285;-76
2023/04/21 03:43:05;;;;;;;3.07;2.03;;;;;;;-145.69;100.00;52650.34;5072352;28;20199;-76
2023/04/21 03:45:34;;;;;;;5.77;2.23;;;;;;;-145.69;100.00;52624.59;5072250;28;20237;-76
2023/04/21 03:48:01;;;;;;;4.77;2.70;;;;;;;-145.69;100.00;52636.50;5071998;28;20199;-76
2023/04/21 03:50:28;;;;;;;6.23;2.90;;;;;;;-145.69;100.00;52628.56;5071668;28;20222;-76
2023/04/21 03:52:55;;;;;;;5.17;2.53;;;;;;;-145.69;100.00;52680.06;5072089;28;20222;-77
2023/04/21 03:55:24;;;;;;;5.17;2.20;;;;;;;-145.69;100.00;52636.50;5072013;28;20252;-76
2023/04/21 03:58:00;;;;;;;6.27;2.33;;;;;;;-145.69;100.00;52652.34;5072209;28;20234;-77
2023/04/21 04:00:27;;;;;;;3.63;2.30;;;;;;;-145.69;100.00;52618.66;5073933;28;20202;-76
2023/04/21 04:02:54;;;;;;;5.13;3.03;;;;;;;-145.69;100.00;52620.66;5075661;28;20684;-76
2023/04/21 04:05:21;;;;;;;4.47;2.80;;;;;;;-145.69;100.00;52598.84;5075973;28;20211;-77
2023/04/21 04:07:48;;;;;;;4.73;2.70;;;;;;;-145.69;100.00;52668.19;5075728;28;20657;-76
2023/04/21 04:10:16;;;;;;;7.03;3.30;;;;;;;-145.69;100.00;52662.22;5075650;28;20195;-77
2023/04/21 04:12:42;;;;;;;6.73;2.90;;;;;;;-145.69;100.00;52668.19;5075571;28;20203;-77
2023/04/21 04:15:12;;;;;;;4.73;3.20;;;;;;;-145.69;100.00;52622.63;5075792;28;20206;-76
2023/04/21 04:17:40;;;;;;;4.87;2.77;;;;;;;-145.69;100.00;52630.53;5075209;28;20222;-76
2023/04/21 04:20:09;;;;;;;7.00;2.83;;;;;;;-145.69;100.00;52608.75;5075205;28;20218;-76
2023/04/21 04:22:38;;;;;;;6.27;3.00;;;;;;;-145.69;100.00;52616.69;5075625;28;20274;-76
2023/04/21 04:25:05;;;;;;;7.43;4.50;;;;;;;-145.69;100.00;52686.00;5075683;28;20898;-77
2023/04/21 04:27:36;;;;;;;5.07;2.20;;;;;;;-145.69;100.00;52604.81;5075546;28;20209;-77
2023/04/21 04:30:05;;;;;;;2.67;2.07;;;;;;;-145.69;100.00;52622.63;5075503;28;20612;-75
2023/04/21 04:32:33;;;;;;;4.50;2.10;;;;;;;-145.69;100.00;52622.63;5075503;28;20202;-77
2023/04/21 04:35:01;;;;;;;4.97;1.73;;;;;;;-145.69;100.00;52626.59;5075370;28;20239;-77
2023/04/21 04:37:27;;;;;;;4.87;2.50;;;;;;;-145.69;100.00;52632.53;5075396;28;20230;-77
2023/04/21 04:39:56;;;;;;;4.43;2.53;;;;;;;-145.69;100.00;52650.34;5074979;28;20195;-77
2023/04/21 04:42:24;;;;;;;9.83;2.87;;;;;;;-145.69;100.00;52630.53;5075012;28;20203;-77
2023/04/21 04:44:56;;;;;;;5.20;2.23;;;;;;;-145.69;100.00;52620.66;5074998;28;20784;-77
2023/04/21 04:47:22;;;;;;;7.47;2.77;;;;;;;-145.69;100.00;52646.41;5075252;28;20290;-77
2023/04/21 04:49:50;;;;;;;5.40;2.47;;;;;;;-145.69;100.00;52620.66;5062708;28;20550;-77
2023/04/21 04:52:19;;;;;;;5.83;2.80;;;;;;;-145.69;100.00;52654.31;5074641;28;20194;-78
2023/04/21 04:54:47;;;;;;;6.40;1.93;;;;;;;-145.69;100.00;52682.03;5075029;28;20233;-77
2023/04/21 04:57:22;;;;;;;3.83;2.47;;;;;;;-145.69;100.00;52646.41;5074723;28;20221;-76
2023/04/21 04:59:54;;;;;;;4.57;2.20;;;;;;;-145.69;100.00;52618.66;5075367;28;20293;-77
2023/04/21 05:02:26;;;;;;;3.47;2.13;;;;;;;-145.69;100.00;52666.19;5074809;28;20199;-76
2023/04/21 05:04:54;;;;;;;6.30;2.67;;;;;;;-145.69;100.00;52642.44;5074816;28;20195;-76
2023/04/21 05:07:20;;;;;;;7.87;2.87;;;;;;;-145.69;100.00;52608.75;5074798;28;20573;-77
2023/04/21 05:09:46;;;;;;;8.10;3.30;;;;;;;-145.69;100.00;52612.72;5074075;28;20665;-77
2023/04/21 05:12:13;;;;;;;7.03;2.50;;;;;;;-145.69;100.00;52581.03;5073639;28;20290;-78
2023/04/21 05:14:39;;;;;;;3.73;2.30;;;;;;;-145.69;100.00;52590.94;5074773;28;20227;-77
2023/04/21 05:17:09;;;;;;;8.43;3.70;;;;;;;-145.69;100.00;52610.75;5074564;28;20285;-77
2023/04/21 05:19:36;;;;;;;11.97;5.43;;;;;;;-145.69;100.00;52646.41;5074150;28;20195;-77
2023/04/21 05:22:05;;;;;;;9.13;5.00;;;;;;;-145.69;100.00;52596.88;5073843;28;20277;-77
2023/04/21 05:24:32;;;;;;;6.63;4.10;;;;;;;-145.69;100.00;52636.50;5074731;28;20199;-77
2023/04/21 05:26:58;;;;;;;10.73;3.80;;;;;;;-145.69;100.00;52616.69;5074414;28;20198;-77
2023/04/21 05:29:27;;;;;;;7.23;4.33;;;;;;;-145.69;100.00;52606.78;5072245;28;20199;-77
2023/04/21 05:31:53;;;;;;;11.40;4.80;;;;;;;-145.69;100.00;52608.75;5054490;28;20200;-78
2023/04/21 05:34:20;;;;;;;16.03;6.87;;;;;;;-145.69;100.00;52630.53;5054204;28;20229;-77
2023/04/21 05:36:47;;;;;;;15.77;7.30;;;;;;;-145.69;100.00;52598.84;5067555;28;20649;-77
2023/04/21 05:39:16;;;;;;;11.40;5.57;;;;;;;-145.69;100.00;52632.53;5074130;28;20844;-77
2023/04/21 05:41:43;;;;;;;8.93;5.20;;;;;;;-145.69;100.00;52642.44;5074054;28;20308;-77
2023/04/21 05:44:12;;;;;;;35.33;14.10;;;;;;;-145.69;100.00;52606.78;5073781;28;20561;-77
2023/04/21 05:46:39;;;;;;;29.73;10.90;;;;;;;-145.69;100.00;52618.66;5073972;28;20198;-76
2023/04/21 05:49:10;;;;;;;12.27;5.80;;;;;;;-145.69;100.00;52622.63;5073584;28;20203;-76
2023/04/21 05:51:41;;;;;;;33.00;13.30;;;;;;;-145.69;100.00;52618.66;5073614;28;20199;-77
2023/04/21 05:54:08;;;;;;;50.00;19.90;;;;;;;-145.69;100.00;52646.41;5073740;28;20693;-77
2023/04/21 05:56:39;;;;;;;40.20;15.77;;;;;;;-145.69;100.00;52642.44;5073907;28;20198;-77
2023/04/21 05:59:05;;;;;;;41.83;14.33;;;;;;;-145.69;100.00;52585.00;5073809;28;20220;-77
2023/04/21 06:01:36;;;;;;;16.47;6.23;;;;;;;-145.69;100.00;52642.44;5073800;28;20271;-77
2023/04/21 06:04:03;;;;;;;12.07;6.30;;;;;;;-145.69;100.00;52650.34;5073499;28;20252;-77
2023/04/21 06:06:32;;;;;;;19.90;7.43;;;;;;;-145.69;100.00;52614.72;5073826;28;20217;-77
2023/04/21 06:09:01;;;;;;;12.67;6.97;;;;;;;-145.69;100.00;52606.78;5073255;28;20253;-76
2023/04/21 06:11:32;;;;;;;11.27;6.40;;;;;;;-145.69;100.00;52598.84;5071183;28;20225;-76
2023/04/21 06:14:01;;;;;;;12.97;6.87;;;;;;;-145.69;100.00;52626.59;5073351;28;20264;-76
2023/04/21 06:16:31;;;;;;;16.00;7.83;;;;;;;-145.69;100.00;52602.81;5073372;28;20202;-76
2023/04/21 06:18:57;;;;;;;13.77;8.00;;;;;;;-145.69;100.00;52638.47;5072845;28;20199;-76
2023/04/21 06:21:26;;;;;;;16.87;8.00;;;;;;;-145.69;100.00;52598.84;5073019;28;20195;-77
2023/04/21 06:23:56;;;;;;;15.63;8.88;;;;;;;-145.69;100.00;52636.50;5072563;28;20454;-76
2023/04/21 06:26:22;;;;;;;15.07;8.17;;;;;;;-145.69;100.00;52626.59;5073334;28;20234;-77
2023/04/21 06:28:49;;;;;;;15.70;8.53;;;;;;;-145.69;100.00;52588.97;5073023;28;20210;-77
2023/04/21 06:31:18;;;;;;;14.43;7.97;;;;;;;-145.69;100.00;52602.81;5052967;28;20567;-77
2023/04/21 06:33:45;;;;;;;15.03;7.43;;;;;;;-145.69;100.00;52654.31;5053080;28;20748;-76
2023/04/21 06:36:11;;;;;;;13.73;7.70;;;;;;;-145.69;100.00;52626.59;5053137;28;20554;-77
2023/04/21 06:38:42;;;;;;;16.13;7.57;;;;;;;-145.69;100.00;52586.97;5053146;28;20302;-77
2023/04/21 06:41:10;;;;;;;17.50;8.33;;;;;;;-145.69;100.00;52626.59;5067682;28;20201;-77
2023/04/21 06:43:39;;;;;;;23.40;8.97;;;;;;;-145.69;100.00;52575.09;5072851;28;20202;-77
2023/04/21 06:46:06;;;;;;;15.77;7.57;;;;;;;-145.69;100.00;52614.72;5072422;28;20274;-77
2023/04/21 06:48:35;;;;;;;18.67;8.77;;;;;;;-145.69;100.00;52590.94;5072348;28;20585;-77
2023/04/21 06:51:09;;;;;;;15.00;7.87;;;;;;;-145.69;100.00;52610.75;5072764;28;20612;-78
2023/04/21 06:53:40;;;;;;;13.17;6.53;;;;;;;-145.69;100.00;52590.94;5072561;28;20268;-76
2023/04/21 06:56:08;;;;;;;12.07;6.27;;;;;;;-145.69;100.00;52632.53;5072302;28;20209;-76
2023/04/21 06:58:34;;;;;;;11.40;6.17;;;;;;;-145.69;100.00;52602.81;5072961;28;20217;-76
2023/04/21 07:01:01;;;;;;;13.03;7.23;;;;;;;-145.69;100.00;52616.69;5072074;28;20227;-76
2023/04/21 07:03:28;;;;;;;11.10;6.47;;;;;;;-145.69;100.00;52614.72;5072435;28;20191;-78
2023/04/21 07:05:56;;;;;;;13.40;7.03;;;;;;;-145.69;100.00;52598.84;5072842;28;20229;-76
2023/04/21 07:08:22;;;;;;;11.27;6.50;;;;;;;-145.69;100.00;52622.63;5072467;28;20223;-77
2023/04/21 07:10:49;;;;;;;12.77;6.33;;;;;;;-145.69;100.00;52565.19;5071864;28;20636;-78
2023/04/21 07:13:16;;;;;;;8.90;5.20;;;;;;;-145.69;100.00;52602.81;5072651;28;20718;-78
2023/04/21 07:15:43;;;;;;;10.23;5.53;;;;;;;-145.69;100.00;52590.94;5072528;28;20709;-79
2023/04/21 07:18:09;;;;;;;9.80;5.07;;;;;;;-145.69;100.00;52600.84;5072562;28;20198;-77
2023/04/21 07:20:36;;;;;;;9.57;5.57;;;;;;;-145.69;100.00;52624.59;5072550;28;20616;-78
2023/04/21 07:23:04;;;;;;;9.27;4.47;;;;;;;-145.69;100.00;52563.22;5071288;28;20203;-77
2023/04/21 07:25:31;;;;;;;8.57;4.03;;;;;;;-145.69;100.00;52579.06;5071388;28;20209;-77
2023/04/21 07:27:57;;;;;;;6.83;3.93;;;;;;;-145.69;100.00;52614.72;5071287;28;20191;-77
2023/04/21 07:30:24;;;;;;;6.30;3.97;;;;;;;-145.69;100.00;52602.81;5072192;28;20205;-76
2023/04/21 07:32:54;;;;;;;6.20;3.73;;;;;;;-145.69;100.00;52573.13;5056920;28;20199;-76
2023/04/21 07:35:22;;;;;;;7.23;4.07;;;;;;;-145.69;100.00;52581.03;5054000;28;20589;-77
2023/04/21 07:37:49;;;;;;;8.73;3.93;;;;;;;-145.69;100.00;52592.91;5056722;28;20557;-76
2023/04/21 07:40:16;;;;;;;6.27;3.77;;;;;;;-145.69;100.00;52588.97;5070912;28;20237;-77
2023/04/21 07:42:43;;;;;;;6.37;3.77;;;;;;;-145.69;100.00;52561.22;5076571;28;20209;-77
2023/04/21 07:45:10;;;;;;;6.40;4.10;;;;;;;-145.69;100.00;52575.09;5074102;28;20218;-77
2023/04/21 07:47:37;;;;;;;4.77;3.20;;;;;;;-145.69;100.00;52586.97;5074342;28;20652;-77
2023/04/21 07:50:04;;;;;;;5.57;3.50;;;;;;;-145.69;100.00;52577.06;5074200;28;20627;-77
2023/04/21 07:52:33;;;;;;;6.83;3.83;;;;;;;-145.69;100.00;52569.16;5074376;28;20194;-77
2023/04/21 07:55:00;;;;;;;8.43;4.53;;;;;;;-145.69;100.00;52571.13;5074630;28;20252;-77
2023/04/21 07:57:28;;;;;;;9.40;5.33;;;;;;;-145.69;100.00;52551.31;5074618;28;20195;-76
2023/04/21 07:59:54;;;;;;;12.33;6.00;;;;;;;-145.69;100.00;52563.22;5075831;28;20230;-77
2023/04/21 08:02:21;;;;;;;17.93;7.63;;;;;;;-145.69;100.00;52571.13;5076080;28;20198;-77
2023/04/21 08:04:47;;;;;;;19.23;7.70;;;;;;;-145.69;100.00;52569.16;5075974;28;20724;-77
2023/04/21 08:07:14;;;;;;;13.23;6.70;;;;;;;-145.69;100.00;52551.31;5076068;28;20241;-76
2023/04/21 08:09:40;;;;;;;12.70;6.47;;;;;;;-145.69;100.00;52567.16;5075216;28;20625;-76
2023/04/21 08:12:07;;;;;;;13.80;7.00;;;;;;;-145.69;100.00;52583.00;5075812;28;20542;-76
2023/04/21 08:14:35;;;;;;;11.83;5.83;;;;;;;-145.69;100.00;52537.47;5075780;28;20223;-77
2023/04/21 08:17:02;;;;;;;11.77;6.17;;;;;;;-145.69;100.00;52557.28;5075790;28;20199;-77
2023/04/21 08:19:28;;;;;;;12.47;6.20;;;;;;;-145.69;100.00;52525.59;5075899;28;20302;-76
2023/04/21 08:21:55;;;;;;;12.57;5.13;;;;;;;-145.69;100.00;52531.53;5075648;28;20203;-76
2023/04/21 08:24:22;;;;;;;10.10;5.30;;;;;;;-145.69;100.00;52537.47;5075772;28;20202;-77
2023/04/21 08:26:49;;;;;;;11.57;5.83;;;;;;;-145.69;100.00;52531.53;5075365;28;20199;-77
2023/04/21 08:29:15;;;;;;;9.13;5.43;;;;;;;-145.69;100.00;52559.25;5075489;28;20245;-77
2023/04/21 08:31:44;;;;;;;13.80;5.53;;;;;;;-145.69;100.00;52535.47;5075578;28;20290;-77
2023/04/21 08:34:11;;;;;;;18.47;6.20;;;;;;;-145.69;100.00;52531.53;5075464;28;20205;-77
2023/04/21 08:36:40;;;;;;;10.20;5.43;;;;;;;-145.69;100.00;52527.56;5075514;28;20206;-78
2023/04/21 08:39:06;;;;;;;10.80;5.90;;;;;;;-145.69;100.00;52549.34;5075456;28;20198;-78
2023/04/21 08:41:33;;;;;;;12.40;5.87;;;;;;;-145.69;100.00;52539.44;5075195;28;20535;-78
2023/04/21 08:43:59;;;;;;;11.13;5.90;;;;;;;-145.69;100.00;52539.44;5075060;28;20206;-78
2023/04/21 08:46:27;;;;;;;13.07;5.70;;;;;;;-145.69;100.00;52531.53;5073779;28;20241;-78
2023/04/21 08:48:58;;;;;;;13.33;5.90;;;;;;;-145.69;100.00;52531.53;5075265;28;20197;-78
2023/04/21 08:51:29;;;;;;;11.03;5.83;;;;;;;-145.69;100.00;52581.03;5075481;28;20199;-78
2023/04/21 08:53:56;;;;;;;11.17;6.03;;;;;;;-145.69;100.00;52541.44;5075278;28;20218;-78
2023/04/21 08:56:24;;;;;;;10.23;4.90;;;;;;;-145.69;100.00;52549.34;5074977;28;20700;-78
2023/04/21 08:58:51;;;;;;;14.03;5.20;;;;;;;-145.69;100.00;52521.63;5074642;28;20210;-78
2023/04/21 09:01:17;;;;;;;8.77;5.00;;;;;;;-145.69;100.00;52531.53;5074822;28;20203;-78
2023/04/21 09:03:44;;;;;;;9.30;5.30;;;;;;;-145.69;100.00;52573.13;5074839;28;20565;-77
2023/04/21 09:06:12;;;;;;;8.17;4.50;;;;;;;-145.69;100.00;52531.53;5074730;28;20202;-77
2023/04/21 09:08:42;;;;;;;8.33;4.83;;;;;;;-145.69;100.00;52563.22;5074920;28;20199;-78
2023/04/21 09:11:13;;;;;;;13.50;5.07;;;;;;;-145.69;100.00;52545.38;5074601;28;20222;-78
2023/04/21 09:13:39;;;;;;;10.33;5.27;;;;;;;-145.69;100.00;52495.88;5074018;28;20206;-78
2023/04/21 09:16:16;;;;;;;13.00;4.50;;;;;;;-145.69;100.00;52515.69;5074833;28;20318;-78
2023/04/21 09:18:43;;;;;;;10.07;4.70;;;;;;;-145.69;100.00;52537.47;5074340;28;20201;-78
2023/04/21 09:21:12;;;;;;;11.73;5.23;;;;;;;-145.69;100.00;52503.81;5074558;28;20194;-78
2023/04/21 09:23:41;;;;;;;10.17;5.63;;;;;;;-145.69;100.00;52545.38;5074611;28;20209;-78
2023/04/21 09:26:07;;;;;;;8.20;4.60;;;;;;;-145.69;100.00;52543.41;5074755;28;20241;-77
2023/04/21 09:28:34;;;;;;;8.20;4.50;;;;;;;-145.69;100.00;52505.78;5074400;28;20194;-78
2023/04/21 09:31:00;;;;;;;8.57;4.90;;;;;;;-145.69;100.00;52535.47;5074838;28;20535;-78
2023/04/21 09:33:27;;;;;;;9.07;4.77;;;;;;;-145.69;100.00;52537.47;5074502;28;20206;-78
2023/04/21 09:35:54;;;;;;;8.73;5.50;;;;;;;-145.69;100.00;52499.84;5073201;28;20701;-78
2023/04/21 09:38:23;;;;;;;7.57;4.83;;;;;;;-145.69;100.00;52529.53;5056127;28;20665;-78
2023/04/21 09:40:56;;;;;;;11.53;5.07;;;;;;;-145.69;100.00;52503.81;5054220;28;20201;-78
2023/04/21 09:43:23;;;;;;;7.60;4.53;;;;;;;-145.69;100.00;52501.81;5054158;28;20286;-78
2023/04/21 09:45:54;;;;;;;7.03;4.10;;;;;;;-145.69;100.00;52529.53;5068583;28;20742;-78
2023/04/21 09:48:27;;;;;;;7.63;4.53;;;;;;;-145.69;100.00;52519.63;5073652;28;20194;-79
2023/04/21 09:50:55;;;;;;;7.47;4.13;;;;;;;-145.69;100.00;52527.56;5073956;28;20199;-78
2023/04/21 09:53:27;;;;;;;8.77;3.77;;;;;;;-145.69;100.00;52495.88;5073607;28;20202;-78
2023/04/21 09:55:57;;;;;;;5.23;3.40;;;;;;;-145.69;100.00;52480.03;5073879;28;20700;-79
2023/04/21 09:58:27;;;;;;;5.30;3.20;;;;;;;-145.69;100.00;52509.75;5073397;28;20255;-78
2023/04/21 10:00:58;;;;;;;9.18;3.63;;;;;;;-145.69;100.00;52529.53;5073335;28;20905;-78
2023/04/21 10:03:29;;;;;;;5.83;3.47;;;;;;;-145.69;100.00;52462.22;5072792;28;20653;-78
2023/04/21 10:05:56;;;;;;;5.67;3.53;;;;;;;-145.69;100.00;52487.97;5074049;28;20207;-77
2023/04/21 10:08:24;;;;;;;4.37;2.40;;;;;;;-145.69;100.00;52468.16;5073693;28;20206;-77
2023/04/21 10:10:53;;;;;;;4.25;2.80;;;;;;;-145.69;100.00;52480.03;5073862;28;20205;-77
2023/04/21 10:13:19;;;;;;;6.20;3.78;;;;;;;-145.69;100.00;52485.97;5073172;28;20198;-77
2023/04/21 10:15:46;;;;;;;11.97;3.40;;;;;;;-145.69;100.00;52444.38;5073172;28;20638;-76
2023/04/21 10:18:17;;;;;;;3.67;2.28;;;;;;;-145.69;100.00;52464.19;5073254;28;20278;-76
2023/04/21 10:21:03;;;;;;;5.20;3.05;;;;;;;-145.69;100.00;52472.13;5072506;28;20207;-75
2023/04/21 10:23:37;;;;;;;6.03;2.60;;;;;;;-145.69;100.00;52440.44;5073306;28;20203;-78
2023/04/21 10:26:06;;;;;;;2.22;1.83;;;;;;;-145.69;100.00;52452.31;5073419;28;20198;-79
2023/04/21 10:28:40;;;;;;;3.03;1.90;;;;;;;-145.69;100.00;52456.28;5073007;28;20202;-79
2023/04/21 10:31:32;;;;;;;2.95;1.73;;;;;;;-145.69;91.63;52476.06;5073259;28;20199;-77
2023/04/21 10:34:21;;;;;;;2.13;1.40;;;;;;;-145.69;100.00;52478.06;5058461;28;20195;-77
2023/04/21 10:37:15;;;;;;;3.25;2.13;;;;;;;-145.69;100.00;52440.44;5070877;28;20309;-78
2023/04/21 10:40:00;;;;;;;3.10;1.30;;;;;;;-145.69;90.54;52450.31;5073171;28;20199;-76
2023/04/21 10:42:30;;;;;;;2.22;1.38;;;;;;;-145.69;88.19;52436.47;5073182;28;20717;-77
2023/04/21 10:45:12;;;;;;;1.98;1.52;;;;;;;-145.69;95.36;52478.06;5072766;28;20317;-78
2023/04/21 10:47:41;;;;;;;2.60;1.40;;;;;;;-145.69;92.33;52472.13;5073267;28;20206;-78
2023/04/21 10:50:16;;;;;;;6.80;2.28;;;;;;;-145.69;95.59;52434.47;5072920;28;20466;-78
2023/04/21 10:52:56;;;;;;;13.15;3.03;;;;;;;-145.69;93.50;52446.38;5072694;28;20190;-78
2023/04/21 10:55:28;;;;;;;3.33;1.85;;;;;;;-145.69;85.17;52478.06;5072756;28;20249;-77
2023/04/21 10:57:54;;;;;;;5.75;2.33;;;;;;;-145.69;94.01;52428.53;5071912;28;21017;-78
2023/04/21 11:00:24;;;;;;;1.65;1.20;;;;;;;-145.69;90.37;52444.38;5072683;28;20198;-80
2023/04/21 11:02:56;;;;;;;2.40;1.30;;;;;;;-145.69;84.53;52436.47;5072315;28;20199;-80
2023/04/21 11:05:33;;;;;;;2.47;1.20;;;;;;;-145.69;85.54;52412.69;5072536;28;20657;-80
2023/04/21 11:08:11;;;;;;;1.23;1.00;;;;;;;-145.69;82.20;52410.72;5072362;28;20198;-80
2023/04/21 11:11:03;;;;;;;1.17;0.80;;;;;;;-145.69;81.29;52426.56;5072208;28;20206;-80
2023/04/21 11:13:32;;;;;;;2.00;1.30;;;;;;;-145.69;81.01;52420.63;5062317;28;20199;-80